createdAt,value
2018-06-30T00:01:56.071Z,14.73
2018-06-30T00:04:24.410Z,18.53
2018-06-30T00:06:52.647Z,13.23
2018-06-30T00:09:20.615Z,17.90
2018-06-30T00:11:48.917Z,20.33
2018-06-30T00:14:17.091Z,17.30
2018-06-30T00:16:45.357Z,17.90
2018-06-30T00:19:13.652Z,18.27
2018-06-30T00:21:41.861Z,18.80
2018-06-30T00:24:10.079Z,19.60
2018-06-30T00:26:38.485Z,16.07
2018-06-30T00:29:06.760Z,15.43
2018-06-30T00:31:34.956Z,15.30
2018-06-30T00:34:03.203Z,17.13
2018-06-30T00:36:32.621Z,15.87
2018-06-30T00:39:00.840Z,14.87
2018-06-30T00:41:29.001Z,16.27
2018-06-30T00:43:57.259Z,15.63
2018-06-30T00:46:25.511Z,17.50
2018-06-30T00:48:53.732Z,15.40
2018-06-30T00:51:21.904Z,16.37
2018-06-30T00:53:50.129Z,18.10
2018-06-30T00:56:19.542Z,15.30
2018-06-30T00:58:47.740Z,15.60
2018-06-30T01:01:15.954Z,15.20
2018-06-30T01:03:44.299Z,15.53
2018-06-30T01:06:12.650Z,18.97
2018-06-30T01:08:40.847Z,17.17
2018-06-30T01:11:09.027Z,21.47
2018-06-30T01:13:37.299Z,16.27
2018-06-30T01:16:05.919Z,14.27
2018-06-30T01:18:34.164Z,17.67
2018-06-30T01:21:02.369Z,19.10
2018-06-30T01:23:30.692Z,18.33
2018-06-30T01:26:01.013Z,17.10
2018-06-30T01:28:29.193Z,23.00
2018-06-30T01:30:57.537Z,20.30
2018-06-30T01:33:25.767Z,19.87
2018-06-30T01:35:56.158Z,22.83
2018-06-30T01:38:24.322Z,19.53
2018-06-30T01:40:52.592Z,17.63
2018-06-30T01:43:20.741Z,16.60
2018-06-30T01:45:50.085Z,18.37
2018-06-30T01:48:18.249Z,17.63
2018-06-30T01:50:46.449Z,22.03
2018-06-30T01:53:14.654Z,19.93
2018-06-30T01:55:42.919Z,19.87
2018-06-30T01:58:11.169Z,21.23
2018-06-30T02:00:39.340Z,22.97
2018-06-30T02:03:07.542Z,18.43
2018-06-30T02:05:35.993Z,16.73
2018-06-30T02:08:04.277Z,21.30
2018-06-30T02:10:32.487Z,16.23
2018-06-30T02:13:00.741Z,21.53
2018-06-30T02:15:28.955Z,18.90
2018-06-30T02:17:57.139Z,20.20
2018-06-30T02:20:25.329Z,23.05
2018-06-30T02:22:53.522Z,17.90
2018-06-30T02:25:21.852Z,18.43
2018-06-30T02:27:50.322Z,20.77
2018-06-30T02:30:18.562Z,20.67
2018-06-30T02:32:46.731Z,20.23
2018-06-30T02:35:15.021Z,20.77
2018-06-30T02:37:43.680Z,21.30
2018-06-30T02:40:11.918Z,17.87
2018-06-30T02:42:40.053Z,20.97
2018-06-30T02:45:09.278Z,18.80
2018-06-30T02:47:37.510Z,18.77
2018-06-30T02:50:05.920Z,20.73
2018-06-30T02:52:34.116Z,18.90
2018-06-30T02:55:02.424Z,19.30
2018-06-30T02:57:30.627Z,19.17
2018-06-30T02:59:58.793Z,20.83
2018-06-30T03:02:26.992Z,21.43
2018-06-30T03:04:55.218Z,23.03
2018-06-30T03:07:23.401Z,20.57
2018-06-30T03:09:51.723Z,19.03
2018-06-30T03:12:20.143Z,20.53
2018-06-30T03:14:48.474Z,21.37
2018-06-30T03:17:16.842Z,19.83
2018-06-30T03:19:45.022Z,23.10
2018-06-30T03:22:13.297Z,18.77
2018-06-30T03:24:41.778Z,19.93
2018-06-30T03:27:10.025Z,17.80
2018-06-30T03:29:38.247Z,19.70
2018-06-30T03:32:06.497Z,20.70
2018-06-30T03:34:34.870Z,18.30
2018-06-30T03:37:03.121Z,19.57
2018-06-30T03:39:31.343Z,17.90
2018-06-30T03:41:59.525Z,17.33
2018-06-30T03:44:27.881Z,18.33
2018-06-30T03:46:56.188Z,20.87
2018-06-30T03:49:24.415Z,18.37
2018-06-30T03:51:52.425Z,15.73
2018-06-30T03:54:20.600Z,19.73
2018-06-30T03:56:48.816Z,17.90
2018-06-30T03:59:17.021Z,17.13
2018-06-30T04:01:45.219Z,15.00
2018-06-30T04:04:13.460Z,20.33
2018-06-30T04:06:41.711Z,17.50
2018-06-30T04:09:11.568Z,15.93
2018-06-30T04:11:39.843Z,15.60
2018-06-30T04:14:08.229Z,16.03
2018-06-30T04:16:36.571Z,15.63
2018-06-30T04:19:11.928Z,17.40
2018-06-30T04:21:40.513Z,17.50
2018-06-30T04:24:08.758Z,12.93
2018-06-30T04:26:36.958Z,14.20
2018-06-30T04:29:05.544Z,11.73
2018-06-30T04:31:33.911Z,15.97
2018-06-30T04:34:02.137Z,11.30
2018-06-30T04:36:30.660Z,13.17
2018-06-30T04:38:58.967Z,14.37
2018-06-30T04:41:27.165Z,16.17
2018-06-30T04:43:55.357Z,15.60
2018-06-30T04:46:23.620Z,10.40
2018-06-30T04:48:51.801Z,11.87
2018-06-30T04:51:20.011Z,12.10
2018-06-30T04:53:48.197Z,14.00
2018-06-30T04:56:16.510Z,11.07
2018-06-30T04:58:44.697Z,11.53
2018-06-30T05:01:12.924Z,12.33
2018-06-30T05:03:41.238Z,9.30
2018-06-30T05:06:09.571Z,11.33
2018-06-30T05:08:37.762Z,10.67
2018-06-30T05:11:05.955Z,8.40
2018-06-30T05:13:34.152Z,10.83
2018-06-30T05:16:02.522Z,8.90
2018-06-30T05:18:30.902Z,8.70
2018-06-30T05:20:59.109Z,11.15
2018-06-30T05:23:27.276Z,10.20
2018-06-30T05:25:55.587Z,13.03
2018-06-30T05:28:23.795Z,9.90
2018-06-30T05:30:51.736Z,9.10
2018-06-30T05:33:20.016Z,12.13
2018-06-30T05:35:48.275Z,11.47
2018-06-30T05:38:16.481Z,9.27
2018-06-30T05:40:44.686Z,12.73
2018-06-30T05:43:12.884Z,8.23
2018-06-30T05:45:41.189Z,9.93
2018-06-30T05:48:09.427Z,9.23
2018-06-30T05:50:37.901Z,9.20
2018-06-30T05:53:06.214Z,11.33
2018-06-30T05:55:34.568Z,10.30
2018-06-30T05:58:02.753Z,12.27
2018-06-30T06:00:30.947Z,8.10
2018-06-30T06:02:59.143Z,9.50
2018-06-30T06:05:27.330Z,10.77
2018-06-30T06:07:55.508Z,10.60
2018-06-30T06:10:23.690Z,9.70
2018-06-30T06:12:51.845Z,7.93
2018-06-30T06:15:20.087Z,15.03
2018-06-30T06:17:48.235Z,7.57
2018-06-30T06:20:16.400Z,8.67
2018-06-30T06:22:44.698Z,6.77
2018-06-30T06:25:12.930Z,8.50
2018-06-30T06:27:41.128Z,10.60
2018-06-30T06:30:09.908Z,9.13
2018-06-30T06:32:38.286Z,7.63
2018-06-30T06:35:06.822Z,9.83
2018-06-30T06:37:35.077Z,6.50
2018-06-30T06:40:03.312Z,9.50
2018-06-30T06:42:31.489Z,11.50
2018-06-30T06:44:59.787Z,7.50
2018-06-30T06:47:28.360Z,6.93
2018-06-30T06:49:56.534Z,5.63
2018-06-30T06:52:24.731Z,6.73
2018-06-30T06:54:53.300Z,8.93
2018-06-30T06:57:21.497Z,5.67
2018-06-30T06:59:49.694Z,7.27
2018-06-30T07:02:18.174Z,7.63
2018-06-30T07:04:46.409Z,10.03
2018-06-30T07:07:14.585Z,6.90
2018-06-30T07:09:42.818Z,5.77
2018-06-30T07:12:11.006Z,6.97
2018-06-30T07:14:39.295Z,6.73
2018-06-30T07:17:07.525Z,5.83
2018-06-30T07:19:35.634Z,9.53
2018-06-30T07:22:03.811Z,7.00
2018-06-30T07:24:32.233Z,4.57
2018-06-30T07:27:00.383Z,4.60
2018-06-30T07:29:28.408Z,6.67
2018-06-30T07:31:56.638Z,7.23
2018-06-30T07:34:24.820Z,7.57
2018-06-30T07:36:53.067Z,5.20
2018-06-30T07:41:55.797Z,8.13
2018-06-30T07:44:24.133Z,6.97
2018-06-30T07:46:52.391Z,5.27
2018-06-30T07:49:20.618Z,6.20
2018-06-30T07:51:48.642Z,8.40
2018-06-30T07:54:16.805Z,6.17
2018-06-30T07:56:44.963Z,4.37
2018-06-30T07:59:13.188Z,5.27
2018-06-30T08:01:41.385Z,3.53
2018-06-30T08:04:09.631Z,8.77
2018-06-30T08:06:37.979Z,5.00
2018-06-30T08:09:07.973Z,4.50
2018-06-30T08:11:36.204Z,4.30
2018-06-30T08:14:04.433Z,3.10
2018-06-30T08:16:32.863Z,5.53
2018-06-30T08:19:01.037Z,3.00
2018-06-30T08:21:29.241Z,3.57
2018-06-30T08:23:57.473Z,3.27
2018-06-30T08:26:25.877Z,5.62
2018-06-30T08:28:54.053Z,3.40
2018-06-30T08:31:22.336Z,4.37
2018-06-30T08:33:50.306Z,5.43
2018-06-30T08:36:18.739Z,3.97
2018-06-30T08:38:46.946Z,2.77
2018-06-30T08:41:14.930Z,4.80
2018-06-30T08:43:43.138Z,3.90
2018-06-30T08:46:11.435Z,4.07
2018-06-30T08:48:39.608Z,3.67
2018-06-30T08:51:07.801Z,4.00
2018-06-30T08:53:36.027Z,3.97
2018-06-30T08:56:04.517Z,3.17
2018-06-30T08:58:32.955Z,3.90
2018-06-30T09:01:01.231Z,3.20
2018-06-30T09:03:29.542Z,5.87
2018-06-30T09:05:57.506Z,3.90
2018-06-30T09:08:25.761Z,5.03
2018-06-30T09:10:53.968Z,2.63
2018-06-30T09:13:22.227Z,3.60
2018-06-30T09:15:50.556Z,3.33
2018-06-30T09:18:18.775Z,3.07
2018-06-30T09:20:46.954Z,5.90
2018-06-30T09:23:15.221Z,3.10
2018-06-30T09:25:43.673Z,2.80
2018-06-30T09:28:11.992Z,3.67
2018-06-30T09:30:41.076Z,5.47
2018-06-30T09:33:09.368Z,2.47
2018-06-30T09:35:37.737Z,2.17
2018-06-30T09:38:05.956Z,2.33
2018-06-30T09:40:34.246Z,3.03
2018-06-30T09:43:02.403Z,2.27
2018-06-30T09:45:30.813Z,3.60
2018-06-30T09:47:59.058Z,2.57
2018-06-30T09:50:27.170Z,1.80
2018-06-30T09:52:55.374Z,2.70
2018-06-30T09:55:23.690Z,1.40
2018-06-30T09:57:51.945Z,1.60
2018-06-30T10:00:25.654Z,3.23
2018-06-30T10:02:53.769Z,2.07
2018-06-30T10:05:22.253Z,3.50
2018-06-30T10:07:50.498Z,1.93
2018-06-30T10:10:18.759Z,1.67
2018-06-30T10:12:46.962Z,4.57
2018-06-30T10:15:16.280Z,1.70
2018-06-30T10:17:44.476Z,2.37
2018-06-30T10:20:12.720Z,1.27
2018-06-30T10:22:40.895Z,6.43
2018-06-30T10:25:09.108Z,1.90
2018-06-30T10:27:37.335Z,1.20
2018-06-30T10:30:05.930Z,3.57
2018-06-30T10:32:34.264Z,1.30
2018-06-30T10:35:02.447Z,3.60
2018-06-30T10:37:30.687Z,2.57
2018-06-30T10:39:58.863Z,1.27
2018-06-30T10:42:27.022Z,5.50
2018-06-30T10:44:55.354Z,4.23
2018-06-30T10:47:23.500Z,7.00
2018-06-30T10:49:51.809Z,2.37
2018-06-30T10:52:20.109Z,1.70
2018-06-30T10:54:48.465Z,3.47
2018-06-30T10:57:16.667Z,1.10
2018-06-30T10:59:44.901Z,1.83
2018-06-30T11:02:13.132Z,1.63
2018-06-30T11:04:41.357Z,1.03
2018-06-30T11:07:09.534Z,1.73
2018-06-30T11:09:38.371Z,3.93
2018-06-30T11:12:07.030Z,1.40
2018-06-30T11:14:35.941Z,1.30
2018-06-30T11:17:04.158Z,3.10
2018-06-30T11:19:32.650Z,1.30
2018-06-30T11:22:03.571Z,1.50
2018-06-30T11:24:31.836Z,0.50
2018-06-30T11:27:00.150Z,1.80
2018-06-30T11:29:28.470Z,2.70
2018-06-30T11:31:56.614Z,0.60
2018-06-30T11:34:25.021Z,2.63
2018-06-30T11:36:53.243Z,2.13
2018-06-30T11:39:21.494Z,1.33
2018-06-30T11:41:49.728Z,1.23
2018-06-30T11:44:17.884Z,0.50
2018-06-30T11:46:46.050Z,2.00
2018-06-30T11:49:14.231Z,1.33
2018-06-30T11:51:42.366Z,0.70
2018-06-30T11:54:10.556Z,1.67
2018-06-30T11:56:38.855Z,0.50
2018-06-30T11:59:07.023Z,1.63
2018-06-30T12:01:35.302Z,1.90
2018-06-30T12:04:03.582Z,0.83
2018-06-30T12:06:31.964Z,1.47
2018-06-30T12:09:00.199Z,1.07
2018-06-30T12:11:28.569Z,0.97
2018-06-30T12:13:56.771Z,2.93
2018-06-30T12:16:25.035Z,0.30
2018-06-30T12:18:53.235Z,1.47
2018-06-30T12:21:21.408Z,0.70
2018-06-30T12:23:49.668Z,0.93
2018-06-30T12:26:17.939Z,0.63
2018-06-30T12:28:46.089Z,3.53
2018-06-30T12:31:14.232Z,0.50
2018-06-30T12:33:42.409Z,2.57
2018-06-30T12:36:10.861Z,1.13
2018-06-30T12:38:39.042Z,0.70
2018-06-30T12:41:07.081Z,2.00
2018-06-30T12:43:35.341Z,0.77
2018-06-30T12:46:07.213Z,1.37
2018-06-30T12:48:35.463Z,1.03
2018-06-30T12:51:03.681Z,1.80
2018-06-30T12:53:31.826Z,0.67
2018-06-30T12:56:00.075Z,0.70
2018-06-30T12:58:28.298Z,2.43
2018-06-30T13:00:56.495Z,0.60
2018-06-30T13:03:24.710Z,2.00
2018-06-30T13:05:54.044Z,0.40
2018-06-30T13:08:22.270Z,1.73
2018-06-30T13:10:50.551Z,0.53
2018-06-30T13:13:18.753Z,1.13
2018-06-30T13:15:47.238Z,1.73
2018-06-30T13:18:15.435Z,0.50
2018-06-30T13:20:43.755Z,1.27
2018-06-30T13:23:11.979Z,0.57
2018-06-30T13:25:40.254Z,0.47
2018-06-30T13:28:08.455Z,0.40
2018-06-30T13:30:36.688Z,1.30
2018-06-30T13:33:04.911Z,1.43
2018-06-30T13:35:33.220Z,0.60
2018-06-30T13:38:01.526Z,1.03
2018-06-30T13:40:29.804Z,2.77
2018-06-30T13:42:58.027Z,0.90
2018-06-30T13:45:27.516Z,1.73
2018-06-30T13:47:55.725Z,0.40
2018-06-30T13:50:24.054Z,0.57
2018-06-30T13:52:52.253Z,1.30
2018-06-30T13:55:20.658Z,3.40
2018-06-30T13:57:48.867Z,2.67
2018-06-30T14:00:17.069Z,0.50
2018-06-30T14:02:45.295Z,1.83
2018-06-30T14:05:13.620Z,2.40
2018-06-30T14:07:41.803Z,1.13
2018-06-30T14:10:10.075Z,1.90
2018-06-30T14:12:38.323Z,1.77
2018-06-30T14:15:07.625Z,0.60
2018-06-30T14:17:36.122Z,2.53
2018-06-30T14:20:05.370Z,1.80
2018-06-30T14:22:33.602Z,1.67
2018-06-30T14:25:01.942Z,3.93
2018-06-30T14:27:30.160Z,1.90
2018-06-30T14:29:58.400Z,2.47
2018-06-30T14:32:26.647Z,1.63
2018-06-30T14:34:55.047Z,1.10
2018-06-30T14:37:23.253Z,2.10
2018-06-30T14:39:51.802Z,1.60
2018-06-30T14:42:20.038Z,0.30
2018-06-30T14:44:48.321Z,3.10
2018-06-30T14:47:16.485Z,2.87
2018-06-30T14:49:44.650Z,1.07
2018-06-30T14:52:12.843Z,1.43
2018-06-30T14:54:41.190Z,2.93
2018-06-30T14:57:09.366Z,0.63
2018-06-30T14:59:37.537Z,2.00
2018-06-30T15:02:05.866Z,1.53
2018-06-30T15:04:34.416Z,2.33
2018-06-30T15:07:02.628Z,0.40
2018-06-30T15:09:30.821Z,2.57
2018-06-30T15:11:59.128Z,0.50
2018-06-30T15:14:27.461Z,3.27
2018-06-30T15:16:55.680Z,0.60
2018-06-30T15:19:23.869Z,1.40
2018-06-30T15:21:52.092Z,3.13
2018-06-30T15:24:20.345Z,2.07
2018-06-30T15:26:48.536Z,3.00
2018-06-30T15:29:16.728Z,0.30
2018-06-30T15:31:44.927Z,2.93
2018-06-30T15:34:13.122Z,1.80
2018-06-30T15:36:41.321Z,2.53
2018-06-30T15:39:10.318Z,1.60
2018-06-30T15:41:38.567Z,7.53
2018-06-30T15:44:07.163Z,3.50
2018-06-30T15:46:35.572Z,0.90
2018-06-30T15:49:04.661Z,0.53
2018-06-30T15:51:32.941Z,0.30
2018-06-30T15:54:01.129Z,0.97
2018-06-30T15:56:29.501Z,2.67
2018-06-30T15:58:57.695Z,1.80
2018-06-30T16:01:25.942Z,0.93
2018-06-30T16:03:54.146Z,2.20
2018-06-30T16:06:22.363Z,0.70
2018-06-30T16:08:50.551Z,2.30
2018-06-30T16:11:18.800Z,0.57
2018-06-30T16:13:46.985Z,0.47
2018-06-30T16:16:16.315Z,0.87
2018-06-30T16:18:44.464Z,1.73
2018-06-30T16:21:12.669Z,0.80
2018-06-30T16:23:40.854Z,1.30
2018-06-30T16:26:09.245Z,1.03
2018-06-30T16:28:37.618Z,2.17
2018-06-30T16:31:06.503Z,0.63
2018-06-30T16:33:34.669Z,3.30
2018-06-30T16:36:02.874Z,1.10
2018-06-30T16:38:31.048Z,2.93
2018-06-30T16:40:59.267Z,1.40
2018-06-30T16:43:27.439Z,1.30
2018-06-30T16:45:55.772Z,1.77
2018-06-30T16:48:23.765Z,0.60
2018-06-30T16:50:52.020Z,2.60
2018-06-30T16:53:20.246Z,2.03
2018-06-30T16:55:48.764Z,6.20
2018-06-30T16:58:16.979Z,1.67
2018-06-30T17:00:51.525Z,1.23
2018-06-30T17:03:19.689Z,2.13
2018-06-30T17:05:47.996Z,0.40
2018-06-30T17:08:16.179Z,2.50
2018-06-30T17:10:44.130Z,1.60
2018-06-30T17:13:12.296Z,0.97
2018-06-30T17:15:40.607Z,2.03
2018-06-30T17:18:08.790Z,1.43
2018-06-30T17:20:37.070Z,1.20
2018-06-30T17:23:05.273Z,2.10
2018-06-30T17:25:33.504Z,4.37
2018-06-30T17:28:01.652Z,1.17
2018-06-30T17:30:29.862Z,5.03
2018-06-30T17:32:58.104Z,3.60
2018-06-30T17:35:26.252Z,0.67
2018-06-30T17:37:54.492Z,2.50
2018-06-30T17:40:22.740Z,4.33
2018-06-30T17:42:50.933Z,2.47
2018-06-30T17:45:19.333Z,3.03
2018-06-30T17:47:47.522Z,0.50
2018-06-30T17:50:15.955Z,0.90
2018-06-30T17:52:44.117Z,2.63
2018-06-30T17:55:12.420Z,1.13
2018-06-30T17:57:40.649Z,1.53
2018-06-30T18:00:08.766Z,1.50
2018-06-30T18:02:37.541Z,0.30
2018-06-30T18:05:06.837Z,2.43
2018-06-30T18:07:35.030Z,3.20
2018-06-30T18:10:03.348Z,0.97
2018-06-30T18:12:31.483Z,2.10
2018-06-30T18:14:59.935Z,0.70
2018-06-30T18:17:28.111Z,2.43
2018-06-30T18:19:56.316Z,1.00
2018-06-30T18:22:24.497Z,3.50
2018-06-30T18:24:52.710Z,2.97
2018-06-30T18:27:20.903Z,1.27
2018-06-30T18:29:49.105Z,1.73
2018-06-30T18:32:17.302Z,1.53
2018-06-30T18:34:45.664Z,0.50
2018-06-30T18:37:13.832Z,2.00
2018-06-30T18:39:42.011Z,4.70
2018-06-30T18:42:10.287Z,1.43
2018-06-30T18:44:38.564Z,1.37
2018-06-30T18:47:07.569Z,1.20
2018-06-30T18:49:35.828Z,4.53
2018-06-30T18:52:04.134Z,5.60
2018-06-30T18:54:32.589Z,3.53
2018-06-30T18:57:00.824Z,2.47
2018-06-30T18:59:29.056Z,1.40
2018-06-30T19:01:57.245Z,2.40
2018-06-30T19:04:25.607Z,3.73
2018-06-30T19:06:54.120Z,2.80
2018-06-30T19:09:22.316Z,2.30
2018-06-30T19:11:50.634Z,3.72
2018-06-30T19:14:18.827Z,1.50
2018-06-30T19:16:47.029Z,1.37
2018-06-30T19:19:15.311Z,1.03
2018-06-30T19:21:43.486Z,2.03
2018-06-30T19:24:11.675Z,1.60
2018-06-30T19:26:40.066Z,1.63
2018-06-30T19:29:08.339Z,1.83
2018-06-30T19:31:36.727Z,2.33
2018-06-30T19:34:04.926Z,2.47
2018-06-30T19:36:33.116Z,2.40
2018-06-30T19:39:01.510Z,4.53
2018-06-30T19:41:29.702Z,1.53
2018-06-30T19:43:57.934Z,0.73
2018-06-30T19:46:26.260Z,2.43
2018-06-30T19:48:54.601Z,4.47
2018-06-30T19:51:22.780Z,2.20
2018-06-30T19:53:50.977Z,0.80
2018-06-30T19:56:19.347Z,0.90
2018-06-30T19:58:47.531Z,0.90
2018-06-30T20:01:15.704Z,3.77
2018-06-30T20:03:43.863Z,1.03
2018-06-30T20:06:12.222Z,2.10
2018-06-30T20:08:41.197Z,3.43
2018-06-30T20:11:09.684Z,3.30
2018-06-30T20:13:37.977Z,3.93
2018-06-30T20:16:07.357Z,1.90
2018-06-30T20:18:35.553Z,0.60
2018-06-30T20:21:03.829Z,7.47
2018-06-30T20:23:32.069Z,2.03
2018-06-30T20:26:00.278Z,7.83
2018-06-30T20:28:28.646Z,1.27
2018-06-30T20:30:56.845Z,0.83
2018-06-30T20:33:25.118Z,1.83
2018-06-30T20:35:53.411Z,1.70
2018-06-30T20:38:21.660Z,1.10
2018-06-30T20:40:49.946Z,0.60
2018-06-30T20:43:18.122Z,2.20
2018-06-30T20:45:47.424Z,3.93
2018-06-30T20:48:16.045Z,1.93
2018-06-30T20:50:44.506Z,1.07
2018-06-30T20:53:13.087Z,0.83
2018-06-30T20:55:41.470Z,1.23
2018-06-30T20:58:09.833Z,2.00
2018-06-30T21:00:38.059Z,3.77
2018-06-30T21:03:06.440Z,2.47
2018-06-30T21:05:34.759Z,1.57
2018-06-30T21:08:03.095Z,3.30
2018-06-30T21:10:31.343Z,2.63
2018-06-30T21:12:59.556Z,4.53
2018-06-30T21:15:27.873Z,0.47
2018-06-30T21:17:56.146Z,2.73
2018-06-30T21:20:24.517Z,1.77
2018-06-30T21:22:52.980Z,1.00
2018-06-30T21:25:21.388Z,0.97
2018-06-30T21:27:49.704Z,2.23
2018-06-30T21:30:18.182Z,0.70
2018-06-30T21:32:46.489Z,3.33
2018-06-30T21:35:14.891Z,5.50
2018-06-30T21:37:43.083Z,1.63
2018-06-30T21:40:11.141Z,2.30
2018-06-30T21:42:39.368Z,0.60
2018-06-30T21:45:08.185Z,2.90
2018-06-30T21:47:36.439Z,0.50
2018-06-30T21:50:04.916Z,2.67
2018-06-30T21:52:33.118Z,3.13
2018-06-30T21:55:02.552Z,2.03
2018-06-30T21:57:30.796Z,2.33
2018-06-30T21:59:58.988Z,4.73
2018-06-30T22:02:27.193Z,1.30
2018-06-30T22:04:55.659Z,1.97
2018-06-30T22:07:23.842Z,2.63
2018-06-30T22:09:52.173Z,1.57
2018-06-30T22:12:20.415Z,0.73
2018-06-30T22:14:48.673Z,1.47
2018-06-30T22:17:16.901Z,1.77
2018-06-30T22:19:44.823Z,2.80
2018-06-30T22:22:13.054Z,0.77
2018-06-30T22:24:41.390Z,1.80
2018-06-30T22:27:09.606Z,1.50
2018-06-30T22:29:37.880Z,3.63
2018-06-30T22:32:06.121Z,0.83
2018-06-30T22:34:34.656Z,0.90
2018-06-30T22:37:02.962Z,1.43
2018-06-30T22:40:36.054Z,2.40
2018-06-30T22:43:04.547Z,1.97
2018-06-30T22:45:33.604Z,0.83
2018-06-30T22:48:02.518Z,1.03
2018-06-30T22:50:30.799Z,0.90
2018-06-30T22:52:59.017Z,1.90
2018-06-30T22:55:28.453Z,5.17
2018-06-30T22:57:56.657Z,1.03
2018-06-30T23:00:24.924Z,1.23
2018-06-30T23:02:53.089Z,1.07
2018-06-30T23:05:21.365Z,0.83
2018-06-30T23:07:49.583Z,4.07
2018-06-30T23:10:17.550Z,0.67
2018-06-30T23:12:45.853Z,1.00
2018-06-30T23:15:16.108Z,2.07
2018-06-30T23:17:44.366Z,2.50
2018-06-30T23:20:12.567Z,2.53
2018-06-30T23:22:58.637Z,1.07
2018-06-30T23:25:28.167Z,2.80
2018-06-30T23:27:56.688Z,1.73
2018-06-30T23:30:25.555Z,1.30
2018-06-30T23:32:53.900Z,1.90
2018-06-30T23:35:23.670Z,2.00
2018-06-30T23:37:52.261Z,1.63
2018-06-30T23:40:20.629Z,0.90
2018-06-30T23:42:48.864Z,0.80
2018-06-30T23:45:18.442Z,4.03
2018-06-30T23:47:47.512Z,1.27
2018-06-30T23:50:15.888Z,1.60
2018-06-30T23:52:44.116Z,1.20
2018-06-30T23:55:13.537Z,1.30
2018-06-30T23:57:41.835Z,0.90
